Time;durP1;ratioP1;P1;durP2;ratioP2;P2;SDS_P1;SDS_P2;PMS_P1;PMS_P2;Temp;Humidity;BMP_temperature;BMP_pressure;BME280_temperature;BME280_humidity;BME280_pressure;Samples;Min_cycle;Max_cycle;Signal;HPM_P1;HPM_P2
2024/04/05 00:01:27;;;;;;;4.05;1.20;;;14.10;74.50;;;;;;5072464;28;20029;-61
2024/04/05 00:03:55;;;;;;;4.68;1.55;;;14.10;74.50;;;;;;5069497;28;20036;-62
2024/04/05 00:06:21;;;;;;;14.27;2.47;;;14.10;74.70;;;;;;5060941;28;20063;-67
2024/04/05 00:08:47;;;;;;;3.05;1.65;;;14.10;74.70;;;;;;5064766;28;20075;-68
2024/04/05 00:11:13;;;;;;;7.28;2.30;;;14.10;74.70;;;;;;5071458;28;20048;-67
2024/04/05 00:13:39;;;;;;;9.77;1.42;;;14.10;74.60;;;;;;5074722;28;20052;-68
2024/04/05 00:16:07;;;;;;;3.58;0.90;;;14.10;74.60;;;;;;5067998;28;20031;-68
2024/04/05 00:18:36;;;;;;;2.80;1.30;;;14.20;74.60;;;;;;5067715;28;20085;-62
2024/04/05 00:21:04;;;;;;;5.95;1.67;;;14.10;74.50;;;;;;5064313;28;20082;-67
2024/04/05 00:23:35;;;;;;;1.77;0.85;;;14.10;74.60;;;;;;5063944;28;20472;-61
2024/04/05 00:26:04;;;;;;;5.57;1.63;;;14.10;74.70;;;;;;5057417;28;20029;-61
2024/04/05 00:28:31;;;;;;;3.97;1.25;;;14.00;74.90;;;;;;5069347;28;20550;-62
2024/04/05 00:30:56;;;;;;;2.78;1.60;;;13.90;75.00;;;;;;5067604;28;20039;-67
2024/04/05 00:33:22;;;;;;;3.45;0.65;;;14.00;75.10;;;;;;5069278;28;20029;-61
2024/04/05 00:35:53;;;;;;;9.27;1.70;;;14.00;75.20;;;;;;5074150;28;20494;-61
2024/04/05 00:38:19;;;;;;;3.22;1.20;;;13.90;75.30;;;;;;5069611;28;20025;-62
2024/04/05 00:40:46;;;;;;;8.60;1.20;;;13.90;75.40;;;;;;5068839;28;20376;-68
2024/04/05 00:43:12;;;;;;;4.68;1.58;;;14.00;75.60;;;;;;5058782;28;20476;-61
2024/04/05 00:45:43;;;;;;;8.27;1.52;;;13.90;75.60;;;;;;5068692;28;20058;-68
2024/04/05 00:48:09;;;;;;;7.38;1.75;;;14.00;75.80;;;;;;5063216;28;20036;-61
2024/04/05 00:50:36;;;;;;;3.53;0.98;;;14.00;75.90;;;;;;5062523;28;20032;-67
2024/04/05 00:53:04;;;;;;;2.72;1.60;;;14.00;76.10;;;;;;5057917;28;20060;-67
2024/04/05 00:55:30;;;;;;;4.05;1.35;;;14.00;76.30;;;;;;5064558;28;20016;-67
2024/04/05 00:58:04;;;;;;;3.65;1.70;;;14.00;76.60;;;;;;5062417;28;20483;-68
2024/04/05 01:00:31;;;;;;;6.97;1.30;;;14.00;77.00;;;;;;5061223;28;20467;-67
2024/04/05 01:02:58;;;;;;;4.28;1.58;;;14.00;77.00;;;;;;5064011;28;20028;-68
2024/04/05 01:05:25;;;;;;;6.80;1.88;;;14.00;77.10;;;;;;5056106;28;20036;-69
2024/04/05 01:07:52;;;;;;;5.35;0.85;;;14.00;77.20;;;;;;5063647;28;20370;-61
2024/04/05 01:10:20;;;;;;;3.72;0.75;;;14.00;77.40;;;;;;5055004;28;20033;-61
2024/04/05 01:12:58;;;;;;;6.03;1.17;;;14.00;77.50;;;;;;5063442;28;20509;-61
2024/04/05 01:15:25;;;;;;;6.15;2.17;;;14.10;77.50;;;;;;5064323;28;20040;-62
2024/04/05 01:17:51;;;;;;;8.02;1.00;;;14.10;77.40;;;;;;5064531;28;20126;-62
2024/04/05 01:20:24;;;;;;;8.48;1.58;;;14.20;77.70;;;;;;5062720;28;20025;-62
2024/04/05 01:22:53;;;;;;;5.13;1.23;;;14.10;77.90;;;;;;5064898;28;20048;-62
2024/04/05 01:25:20;;;;;;;8.63;1.45;;;14.10;78.00;;;;;;5068886;28;20016;-62
2024/04/05 01:27:46;;;;;;;8.15;1.25;;;14.10;78.10;;;;;;5071430;28;20438;-62
2024/04/05 01:30:12;;;;;;;3.78;1.40;;;14.10;78.20;;;;;;5062030;28;20501;-62
2024/04/05 01:32:38;;;;;;;8.85;1.70;;;14.20;78.20;;;;;;5067960;28;20115;-62
2024/04/05 01:35:05;;;;;;;3.30;1.20;;;14.20;78.10;;;;;;5069357;28;20047;-62
2024/04/05 01:37:31;;;;;;;8.30;1.70;;;14.20;78.10;;;;;;5070952;28;20240;-62
2024/04/05 01:39:57;;;;;;;6.30;1.88;;;14.20;78.10;;;;;;5069433;28;20033;-62
2024/04/05 01:42:23;;;;;;;4.38;1.52;;;14.20;78.20;;;;;;5065861;28;20020;-62
2024/04/05 01:44:48;;;;;;;6.53;2.38;;;14.20;78.30;;;;;;5069390;28;20119;-68
2024/04/05 01:47:15;;;;;;;4.15;1.45;;;14.20;78.30;;;;;;5068500;28;20498;-69
2024/04/05 01:49:41;;;;;;;3.75;1.10;;;14.20;78.20;;;;;;5062776;28;20441;-62
2024/04/05 01:52:07;;;;;;;8.60;1.73;;;14.30;78.20;;;;;;5065921;28;20094;-70
2024/04/05 01:54:33;;;;;;;3.13;0.60;;;14.30;78.10;;;;;;5067474;28;20032;-68
2024/04/05 01:56:59;;;;;;;5.25;0.95;;;14.40;78.10;;;;;;5072440;28;20116;-62
2024/04/05 01:59:24;;;;;;;4.60;1.20;;;14.30;78.10;;;;;;5072316;28;20162;-62
2024/04/05 02:01:50;;;;;;;2.42;0.90;;;14.30;78.30;;;;;;5072578;28;20593;-62
2024/04/05 02:04:17;;;;;;;3.72;1.05;;;14.30;78.50;;;;;;5069079;28;20472;-62
2024/04/05 02:06:43;;;;;;;6.53;1.67;;;14.30;78.50;;;;;;5051061;28;20033;-62
2024/04/05 02:09:09;;;;;;;6.63;1.42;;;14.30;78.40;;;;;;5069635;28;20025;-62
2024/04/05 02:11:35;;;;;;;4.85;1.10;;;14.30;78.50;;;;;;5071793;28;20052;-69
2024/04/05 02:14:03;;;;;;;2.38;0.85;;;14.30;78.70;;;;;;5071596;28;20518;-62
2024/04/05 02:16:29;;;;;;;3.75;1.15;;;14.30;78.70;;;;;;5067355;28;20038;-68
2024/04/05 02:18:55;;;;;;;3.17;1.75;;;14.30;78.60;;;;;;5062562;28;20052;-62
2024/04/05 02:21:23;;;;;;;3.45;0.95;;;14.30;78.60;;;;;;5067313;28;20024;-68
2024/04/05 02:23:49;;;;;;;2.70;1.08;;;14.30;79.20;;;;;;5068108;28;20040;-68
2024/04/05 02:26:14;;;;;;;6.75;1.55;;;14.30;78.70;;;;;;5072199;28;20464;-62
2024/04/05 02:28:40;;;;;;;1.90;0.77;;;14.20;78.80;;;;;;5069101;28;20604;-67
2024/04/05 02:31:09;;;;;;;4.45;1.80;;;14.20;78.90;;;;;;5067421;28;20447;-68
2024/04/05 02:33:36;;;;;;;8.60;1.67;;;14.20;78.90;;;;;;5066238;28;20029;-68
2024/04/05 02:36:02;;;;;;;5.03;1.23;;;14.20;78.90;;;;;;5072184;28;20040;-68
2024/04/05 02:38:28;;;;;;;4.78;1.38;;;14.20;79.00;;;;;;5071682;28;20369;-68
2024/04/05 02:40:55;;;;;;;5.07;0.90;;;14.20;79.00;;;;;;5063853;28;20478;-62
2024/04/05 02:43:22;;;;;;;5.03;1.30;;;14.20;79.00;;;;;;5063348;28;20032;-69
2024/04/05 02:45:48;;;;;;;2.58;1.33;;;14.20;79.00;;;;;;5067875;28;20043;-68
2024/04/05 02:48:15;;;;;;;4.40;1.38;;;14.20;79.00;;;;;;5071242;28;20040;-62
2024/04/05 02:50:41;;;;;;;7.53;0.93;;;14.20;79.10;;;;;;5075538;28;20112;-68
2024/04/05 02:53:07;;;;;;;3.25;1.00;;;14.20;79.20;;;;;;5069366;28;20066;-62
2024/04/05 02:55:33;;;;;;;3.22;1.65;;;14.20;79.20;;;;;;5071413;28;20068;-62
2024/04/05 02:57:59;;;;;;;4.68;1.20;;;14.20;79.30;;;;;;5070134;28;20024;-62
2024/04/05 03:00:25;;;;;;;3.78;1.20;;;14.20;79.30;;;;;;5066158;28;20039;-62
2024/04/05 03:02:51;;;;;;;4.57;1.38;;;14.20;79.30;;;;;;5059064;28;20094;-62
2024/04/05 03:05:17;;;;;;;2.35;1.02;;;14.10;79.30;;;;;;5062608;28;20123;-68
2024/04/05 03:07:42;;;;;;;3.75;1.65;;;14.20;79.40;;;;;;5059275;28;20040;-62
2024/04/05 03:10:08;;;;;;;2.35;1.85;;;14.10;79.40;;;;;;5062211;28;20068;-68
2024/04/05 03:12:34;;;;;;;1.92;1.65;;;14.10;79.40;;;;;;5069549;28;20416;-62
2024/04/05 03:15:01;;;;;;;5.30;1.20;;;14.20;79.40;;;;;;5067772;28;20033;-67
2024/04/05 03:17:28;;;;;;;4.43;1.20;;;14.10;79.40;;;;;;5070650;28;20031;-62
2024/04/05 03:19:54;;;;;;;2.97;0.80;;;14.20;79.50;;;;;;5063827;28;20056;-68
2024/04/05 03:22:20;;;;;;;6.22;1.50;;;14.20;79.50;;;;;;5066847;28;20025;-62
2024/04/05 03:24:46;;;;;;;2.95;0.55;;;14.20;79.40;;;;;;5069771;28;20032;-68
2024/04/05 03:27:12;;;;;;;0.90;0.60;;;14.20;79.40;;;;;;5069708;28;20058;-68
2024/04/05 03:29:38;;;;;;;2.10;0.88;;;14.10;79.40;;;;;;5067271;28;20060;-69
2024/04/05 03:32:04;;;;;;;2.97;1.92;;;14.20;79.40;;;;;;5069421;28;20029;-68
2024/04/05 03:34:30;;;;;;;1.85;0.70;;;14.20;79.50;;;;;;5062761;28;20025;-68
2024/04/05 03:36:56;;;;;;;5.90;1.13;;;14.20;79.50;;;;;;5081267;28;20081;-68
2024/04/05 03:39:22;;;;;;;3.10;1.00;;;14.20;79.50;;;;;;5061025;28;20036;-69
2024/04/05 03:41:49;;;;;;;6.78;2.05;;;14.20;79.50;;;;;;5071582;28;20120;-68
2024/04/05 03:44:15;;;;;;;2.55;1.15;;;14.20;79.50;;;;;;5069764;28;20471;-62
2024/04/05 03:46:45;;;;;;;3.20;1.20;;;14.20;79.40;;;;;;5075242;28;20045;-62
2024/04/05 03:49:11;;;;;;;9.10;1.65;;;14.20;79.50;;;;;;5069552;28;20028;-62
2024/04/05 03:51:37;;;;;;;3.25;1.05;;;14.20;79.60;;;;;;5071515;28;20045;-62
2024/04/05 03:54:03;;;;;;;3.60;1.42;;;14.20;79.60;;;;;;5070286;28;20044;-62
2024/04/05 03:56:29;;;;;;;3.42;1.38;;;14.20;79.70;;;;;;5071337;28;20033;-68
2024/04/05 03:58:55;;;;;;;5.07;1.10;;;14.20;79.80;;;;;;5073101;28;20025;-62
2024/04/05 04:01:21;;;;;;;4.72;0.82;;;14.30;79.80;;;;;;5072086;28;20051;-68
2024/04/05 04:03:47;;;;;;;3.28;1.27;;;14.20;80.10;;;;;;5066706;28;20041;-68
2024/04/05 04:06:13;;;;;;;8.07;2.03;;;14.20;80.30;;;;;;5066561;28;20541;-70
2024/04/05 04:08:39;;;;;;;3.58;0.90;;;14.10;80.40;;;;;;5069065;28;20032;-69
2024/04/05 04:11:05;;;;;;;3.47;0.82;;;14.10;80.50;;;;;;5071198;28;20055;-63
2024/04/05 04:13:31;;;;;;;3.08;1.27;;;14.10;80.50;;;;;;5064462;28;20536;-63
2024/04/05 04:15:58;;;;;;;7.78;1.60;;;14.20;80.60;;;;;;5068048;28;20016;-69
2024/04/05 04:18:24;;;;;;;4.05;1.30;;;14.20;80.70;;;;;;5073611;28;20025;-63
2024/04/05 04:20:50;;;;;;;6.80;1.02;;;14.20;80.70;;;;;;5071781;28;20113;-63
2024/04/05 04:23:16;;;;;;;2.78;1.15;;;14.20;80.80;;;;;;5064377;28;20035;-69
2024/04/05 04:25:42;;;;;;;3.70;0.77;;;14.20;80.90;;;;;;5054359;28;20029;-70
2024/04/05 04:28:08;;;;;;;4.00;1.02;;;14.20;81.00;;;;;;5066112;28;20036;-69
2024/04/05 04:30:34;;;;;;;4.25;1.33;;;14.20;81.00;;;;;;5065941;28;20182;-69
2024/04/05 04:33:00;;;;;;;2.45;1.38;;;14.20;81.10;;;;;;5071072;28;20028;-70
2024/04/05 04:35:26;;;;;;;4.13;1.38;;;14.30;81.20;;;;;;5065705;28;20037;-68
2024/04/05 04:37:55;;;;;;;3.75;0.75;;;14.20;81.10;;;;;;5062189;28;20086;-68
2024/04/05 04:40:21;;;;;;;2.97;1.15;;;14.20;81.20;;;;;;5062689;28;20116;-68
2024/04/05 04:42:47;;;;;;;2.92;1.67;;;14.20;81.30;;;;;;5056939;28;20190;-68
2024/04/05 04:45:13;;;;;;;3.70;1.45;;;14.20;81.40;;;;;;5068465;28;20044;-68
2024/04/05 04:47:39;;;;;;;1.52;0.70;;;14.20;81.60;;;;;;5054685;28;20123;-62
2024/04/05 04:50:05;;;;;;;2.97;1.25;;;14.20;81.60;;;;;;5067698;28;20127;-62
2024/04/05 04:52:31;;;;;;;5.78;1.77;;;14.20;81.60;;;;;;5067408;28;20036;-62
2024/04/05 04:54:57;;;;;;;1.75;1.00;;;14.10;81.70;;;;;;5069567;28;20047;-69
2024/04/05 04:57:24;;;;;;;1.92;1.08;;;14.10;81.80;;;;;;5064006;28;20024;-69
2024/04/05 04:59:51;;;;;;;3.50;0.98;;;14.10;82.00;;;;;;5066802;28;20023;-69
2024/04/05 05:02:17;;;;;;;1.23;0.80;;;14.10;82.10;;;;;;5064118;28;20333;-68
2024/04/05 05:04:43;;;;;;;8.35;1.40;;;14.00;82.20;;;;;;5066349;28;20492;-68
2024/04/05 05:07:09;;;;;;;2.83;1.42;;;14.10;82.30;;;;;;5067489;28;20115;-62
2024/04/05 05:09:35;;;;;;;1.63;0.82;;;14.10;82.40;;;;;;5065787;28;20033;-62
2024/04/05 05:12:00;;;;;;;2.72;1.02;;;14.10;82.40;;;;;;5068957;28;20071;-63
2024/04/05 05:14:27;;;;;;;3.90;1.48;;;14.10;82.50;;;;;;5061270;28;20043;-62
2024/04/05 05:16:52;;;;;;;3.85;1.00;;;14.10;82.50;;;;;;5066183;28;20017;-62
2024/04/05 05:19:18;;;;;;;3.28;1.70;;;14.10;82.50;;;;;;5064025;28;20439;-63
2024/04/05 05:21:44;;;;;;;2.85;1.20;;;14.10;82.50;;;;;;5073885;28;20463;-67
2024/04/05 05:24:09;;;;;;;2.45;1.55;;;14.10;82.50;;;;;;5076331;28;20036;-63
2024/04/05 05:26:35;;;;;;;3.05;0.90;;;14.10;82.60;;;;;;5055254;28;20037;-63
2024/04/05 05:29:01;;;;;;;1.80;0.77;;;14.10;82.60;;;;;;5062769;28;20047;-68
2024/04/05 05:31:26;;;;;;;5.53;1.05;;;14.20;82.70;;;;;;5056251;28;20063;-67
2024/04/05 05:33:52;;;;;;;4.28;1.40;;;14.10;82.80;;;;;;5070288;28;20035;-68
2024/04/05 05:36:18;;;;;;;3.55;1.10;;;14.10;83.00;;;;;;5067913;28;20025;-62
2024/04/05 05:38:44;;;;;;;1.25;0.85;;;14.10;83.10;;;;;;5066149;28;20039;-62
2024/04/05 05:41:09;;;;;;;3.60;1.33;;;14.10;83.30;;;;;;5064545;28;20029;-68
2024/04/05 05:43:35;;;;;;;1.10;0.98;;;14.10;83.40;;;;;;5066467;28;20032;-67
2024/04/05 05:46:01;;;;;;;8.70;2.20;;;14.10;83.40;;;;;;5066074;28;20086;-68
2024/04/05 05:48:26;;;;;;;1.30;0.60;;;14.10;83.40;;;;;;5066073;28;20040;-67
2024/04/05 05:50:52;;;;;;;2.00;0.90;;;14.20;83.50;;;;;;5066329;28;20415;-67
2024/04/05 05:53:18;;;;;;;5.53;1.95;;;14.20;83.60;;;;;;5068363;28;20512;-62
2024/04/05 05:55:48;;;;;;;3.78;1.20;;;14.20;83.80;;;;;;5067173;28;20427;-67
2024/04/05 05:58:14;;;;;;;4.00;1.13;;;14.20;83.80;;;;;;5068117;28;20028;-68
2024/04/05 06:00:40;;;;;;;4.80;1.80;;;14.30;83.90;;;;;;5063571;28;20419;-67
2024/04/05 06:03:07;;;;;;;1.13;1.02;;;14.30;84.00;;;;;;5068042;28;20040;-62
2024/04/05 06:05:33;;;;;;;4.30;1.10;;;14.30;84.00;;;;;;5057877;28;20371;-68
2024/04/05 06:07:59;;;;;;;2.55;1.10;;;14.40;84.00;;;;;;5067739;28;20498;-62
2024/04/05 06:10:25;;;;;;;3.47;1.20;;;14.40;83.90;;;;;;5068237;28;20536;-62
2024/04/05 06:12:50;;;;;;;2.05;0.80;;;14.40;84.00;;;;;;5065411;28;20057;-67
2024/04/05 06:15:16;;;;;;;0.95;0.88;;;14.50;84.00;;;;;;5069240;28;20053;-67
2024/04/05 06:17:46;;;;;;;2.35;0.85;;;14.50;84.00;;;;;;5068785;28;20036;-68
2024/04/05 06:20:12;;;;;;;5.05;1.85;;;14.50;84.00;;;;;;5066833;28;20016;-68
2024/04/05 06:22:38;;;;;;;3.20;0.90;;;14.60;84.20;;;;;;5067704;28;20036;-67
2024/04/05 06:25:04;;;;;;;1.08;0.73;;;14.60;84.20;;;;;;5067145;28;20420;-69
2024/04/05 06:27:31;;;;;;;4.80;1.15;;;14.70;84.20;;;;;;5067054;28;20024;-68
2024/04/05 06:29:57;;;;;;;1.00;0.93;;;14.70;84.20;;;;;;5071405;28;20052;-67
2024/04/05 06:32:23;;;;;;;3.47;1.73;;;14.80;84.20;;;;;;5060933;28;20075;-68
2024/04/05 06:34:52;;;;;;;1.85;0.90;;;14.80;84.20;;;;;;5066154;28;20119;-69
2024/04/05 06:37:18;;;;;;;1.27;1.05;;;14.80;84.10;;;;;;5063528;28;20025;-68
2024/04/05 06:39:43;;;;;;;1.40;0.68;;;14.90;84.20;;;;;;5069284;28;20416;-68
2024/04/05 06:42:10;;;;;;;3.58;1.35;;;14.90;84.20;;;;;;5059658;28;20032;-67
2024/04/05 06:44:38;;;;;;;3.35;0.73;;;14.90;84.30;;;;;;5065779;28;20071;-68
2024/04/05 06:47:05;;;;;;;0.75;0.75;;;14.90;84.30;;;;;;5072542;28;20028;-68
2024/04/05 06:49:34;;;;;;;1.42;0.63;;;15.00;84.30;;;;;;5074094;28;20383;-68
2024/04/05 06:52:06;;;;;;;0.50;0.50;;;15.10;84.20;;;;;;5062778;28;20021;-68
2024/04/05 06:54:39;;;;;;;2.75;1.23;;;15.10;84.50;;;;;;5063405;28;20028;-68
2024/04/05 06:57:05;;;;;;;1.95;0.93;;;15.10;84.50;;;;;;5063448;28;20071;-68
2024/04/05 06:59:34;;;;;;;2.53;0.88;;;15.20;84.50;;;;;;5071552;28;20589;-67
2024/04/05 07:01:59;;;;;;;2.55;0.73;;;15.20;84.50;;;;;;5067645;28;20482;-66
2024/04/05 07:04:26;;;;;;;2.28;0.80;;;15.20;84.60;;;;;;5076827;28;20169;-67
2024/04/05 07:06:54;;;;;;;2.78;1.27;;;15.20;84.50;;;;;;5071996;28;20391;-60
2024/04/05 07:09:21;;;;;;;0.80;0.60;;;15.30;84.40;;;;;;5071714;28;20484;-62
2024/04/05 07:11:48;;;;;;;2.92;1.30;;;15.40;84.30;;;;;;5067129;28;20583;-62
2024/04/05 07:14:17;;;;;;;1.08;0.73;;;15.40;84.20;;;;;;5071631;28;20028;-62
2024/04/05 07:16:46;;;;;;;1.23;0.88;;;15.50;84.20;;;;;;5068167;28;20029;-63
2024/04/05 07:19:12;;;;;;;2.22;1.58;;;15.60;84.10;;;;;;5071811;28;20074;-62
2024/04/05 07:21:38;;;;;;;2.63;1.08;;;15.60;84.10;;;;;;5074039;28;20029;-70
2024/04/05 07:24:05;;;;;;;0.80;0.52;;;15.70;84.10;;;;;;5068422;28;20040;-70
2024/04/05 07:26:31;;;;;;;2.75;0.77;;;15.70;84.10;;;;;;5064961;28;20078;-70
2024/04/05 07:28:57;;;;;;;1.67;0.52;;;15.70;84.00;;;;;;5068999;28;20041;-64
2024/04/05 07:31:22;;;;;;;2.22;1.00;;;15.80;84.00;;;;;;5070082;28;20111;-65
2024/04/05 07:33:48;;;;;;;3.30;1.08;;;15.80;84.00;;;;;;5072107;28;20110;-65
2024/04/05 07:36:16;;;;;;;3.67;1.30;;;15.80;84.00;;;;;;5069165;28;20494;-64
2024/04/05 07:38:42;;;;;;;1.83;0.73;;;15.80;84.00;;;;;;5069186;28;20036;-70
2024/04/05 07:41:07;;;;;;;1.88;1.10;;;15.80;84.00;;;;;;5067780;28;20491;-70
2024/04/05 07:43:33;;;;;;;2.30;0.85;;;15.80;84.30;;;;;;5063147;28;20035;-63
2024/04/05 07:45:59;;;;;;;0.88;0.75;;;15.80;84.50;;;;;;5059027;28;20021;-64
2024/04/05 07:48:25;;;;;;;2.38;0.90;;;15.80;84.50;;;;;;5066874;28;20029;-65
2024/04/05 07:50:51;;;;;;;1.63;1.10;;;15.80;84.60;;;;;;5067130;28;20036;-63
2024/04/05 07:53:17;;;;;;;1.27;1.05;;;15.80;84.60;;;;;;5066654;28;20036;-63
2024/04/05 07:55:43;;;;;;;1.13;0.70;;;15.80;84.60;;;;;;5069064;28;20025;-63
2024/04/05 07:58:09;;;;;;;2.58;1.17;;;15.80;84.50;;;;;;5066718;28;20420;-63
2024/04/05 08:00:36;;;;;;;3.40;1.10;;;15.80;84.50;;;;;;5068841;28;20016;-62
2024/04/05 08:03:03;;;;;;;1.95;1.08;;;15.80;84.60;;;;;;5056146;28;20041;-62
2024/04/05 08:05:29;;;;;;;0.50;0.50;;;15.90;84.60;;;;;;5060114;28;20028;-62
2024/04/05 08:07:56;;;;;;;3.80;0.50;;;15.90;84.50;;;;;;5064421;28;20486;-62
2024/04/05 08:10:22;;;;;;;0.93;0.60;;;16.00;84.50;;;;;;5067687;28;20025;-62
2024/04/05 08:12:50;;;;;;;0.50;0.50;;;16.00;84.40;;;;;;5059420;28;20052;-62
2024/04/05 08:15:15;;;;;;;1.75;0.68;;;16.10;84.30;;;;;;5066249;28;20044;-62
2024/04/05 08:17:41;;;;;;;2.72;0.88;;;16.10;84.20;;;;;;5067628;28;20068;-62
2024/04/05 08:20:07;;;;;;;1.98;1.05;;;16.00;84.30;;;;;;5064505;28;20024;-69
2024/04/05 08:22:34;;;;;;;3.63;1.38;;;16.00;84.40;;;;;;5066314;28;20060;-62
2024/04/05 08:25:00;;;;;;;2.72;0.70;;;16.00;84.40;;;;;;5067211;28;20052;-70
2024/04/05 08:27:31;;;;;;;3.05;0.80;;;16.00;84.40;;;;;;5066421;28;20066;-70
2024/04/05 08:29:57;;;;;;;1.90;0.87;;;15.90;84.40;;;;;;5070029;28;20050;-62
2024/04/05 08:32:23;;;;;;;1.70;0.73;;;15.90;84.40;;;;;;5068966;28;20071;-62
2024/04/05 08:34:48;;;;;;;3.15;1.15;;;15.90;84.50;;;;;;5067266;28;20093;-69
2024/04/05 08:37:14;;;;;;;5.00;1.58;;;15.80;84.70;;;;;;5066063;28;20036;-70
2024/04/05 08:39:40;;;;;;;4.35;0.80;;;15.80;84.70;;;;;;5065876;28;20059;-62
2024/04/05 08:42:18;;;;;;;1.52;1.20;;;15.80;84.90;;;;;;5062931;28;20052;-70
2024/04/05 08:44:47;;;;;;;1.00;0.80;;;15.80;84.80;;;;;;5056807;28;20524;-69
2024/04/05 08:47:13;;;;;;;1.05;0.65;;;15.90;84.80;;;;;;5058869;28;20068;-68
2024/04/05 08:49:39;;;;;;;1.67;0.70;;;15.90;84.70;;;;;;5070572;28;20550;-68
2024/04/05 08:52:06;;;;;;;2.58;0.90;;;16.00;84.70;;;;;;5061844;28;20112;-68
2024/04/05 08:54:32;;;;;;;1.75;1.25;;;15.90;84.60;;;;;;5067798;28;20090;-68
2024/04/05 08:57:00;;;;;;;1.42;0.70;;;15.90;84.70;;;;;;5058991;28;20029;-68
2024/04/05 08:59:29;;;;;;;0.95;0.57;;;15.90;84.80;;;;;;5069519;28;20074;-68
2024/04/05 09:01:58;;;;;;;2.88;1.35;;;15.90;84.80;;;;;;5069479;28;20028;-63
2024/04/05 09:04:31;;;;;;;0.60;0.47;;;15.90;85.00;;;;;;5062100;28;20085;-69
2024/04/05 09:06:57;;;;;;;3.65;0.50;;;15.90;84.90;;;;;;5067110;28;20028;-64
2024/04/05 09:09:30;;;;;;;3.35;0.90;;;15.90;84.80;;;;;;5066543;28;20025;-64
2024/04/05 09:12:15;;;;;;;1.00;0.73;;;15.90;84.80;;;;;;5055806;28;20101;-63
2024/04/05 09:14:41;;;;;;;1.60;1.50;;;15.90;84.80;;;;;;5065063;28;20039;-64
2024/04/05 09:17:14;;;;;;;1.25;1.02;;;15.90;84.80;;;;;;5065531;28;20112;-62
2024/04/05 09:19:40;;;;;;;2.30;0.50;;;15.90;84.70;;;;;;5061308;28;20024;-62
2024/04/05 09:22:06;;;;;;;3.45;1.05;;;15.90;84.50;;;;;;5060358;28;20081;-63
2024/04/05 09:24:32;;;;;;;1.27;1.10;;;15.90;84.30;;;;;;5053803;28;20032;-63
2024/04/05 09:26:58;;;;;;;3.72;1.50;;;16.00;84.40;;;;;;5064824;28;20463;-63
2024/04/05 09:29:24;;;;;;;5.88;0.90;;;16.00;84.30;;;;;;5066126;28;20033;-64
2024/04/05 09:31:50;;;;;;;1.23;0.60;;;16.00;84.30;;;;;;5062257;28;20326;-63
2024/04/05 09:34:18;;;;;;;1.13;0.60;;;16.00;84.50;;;;;;5059942;28;20040;-63
2024/04/05 09:36:44;;;;;;;5.88;0.82;;;15.90;84.70;;;;;;5063345;28;20090;-62
2024/04/05 09:39:16;;;;;;;1.35;1.10;;;15.90;85.30;;;;;;5063466;28;20028;-63
2024/04/05 09:41:44;;;;;;;0.85;0.68;;;15.90;84.70;;;;;;5059057;28;20029;-63
2024/04/05 09:44:11;;;;;;;2.05;0.95;;;15.90;84.70;;;;;;5056944;28;20036;-63
2024/04/05 09:46:38;;;;;;;1.20;0.70;;;15.90;84.70;;;;;;5064783;28;20789;-64
2024/04/05 09:49:05;;;;;;;0.82;0.65;;;15.90;84.70;;;;;;5056733;28;20037;-63
2024/04/05 09:51:48;;;;;;;0.98;0.70;;;15.90;84.80;;;;;;5067603;28;20031;-63
2024/04/05 09:54:17;;;;;;;0.75;0.70;;;16.00;84.90;;;;;;5061883;28;20503;-63
2024/04/05 09:56:44;;;;;;;1.45;1.05;;;15.90;85.00;;;;;;5060596;28;20116;-64
2024/04/05 09:59:11;;;;;;;4.05;0.90;;;15.90;85.00;;;;;;5063661;28;20498;-63
2024/04/05 10:01:41;;;;;;;2.45;1.20;;;15.90;85.10;;;;;;5059008;28;20037;-64
2024/04/05 10:04:07;;;;;;;1.80;0.82;;;16.00;85.00;;;;;;5060516;28;21019;-63
2024/04/05 10:06:42;;;;;;;0.75;0.75;;;16.00;84.90;;;;;;5065628;28;20029;-63
2024/04/05 10:09:21;;;;;;;2.00;0.82;;;16.10;84.90;;;;;;5054964;28;20039;-63
2024/04/05 10:11:50;;;;;;;0.82;0.80;;;16.10;85.00;;;;;;5056053;28;20503;-63
2024/04/05 10:14:22;;;;;;;0.70;0.70;;;16.10;84.90;;;;;;5064294;28;20078;-63
2024/04/05 10:16:48;;;;;;;2.35;0.80;;;16.20;84.90;;;;;;5068064;28;20035;-63
2024/04/05 10:19:15;;;;;;;3.05;1.55;;;16.20;85.00;;;;;;5067946;28;20059;-63
2024/04/05 10:21:41;;;;;;;2.42;0.85;;;16.20;85.00;;;;;;5056969;28;20116;-63
2024/04/05 10:24:07;;;;;;;1.10;0.95;;;16.30;85.00;;;;;;5062760;28;20036;-71
2024/04/05 10:26:36;;;;;;;3.08;1.05;;;16.40;85.00;;;;;;5064239;28;20028;-63
2024/04/05 10:29:06;;;;;;;1.63;0.65;;;16.50;84.90;;;;;;5063724;28;20021;-63
2024/04/05 10:31:38;;;;;;;2.13;0.68;;;16.60;84.70;;;;;;5063667;28;20041;-62
2024/04/05 10:34:03;;;;;;;4.57;0.75;;;16.80;84.50;;;;;;5068714;28;20732;-68
2024/04/05 10:36:33;;;;;;;0.68;0.52;;;16.80;84.20;;;;;;5072619;28;20035;-68
2024/04/05 10:39:03;;;;;;;2.38;0.50;;;16.90;84.20;;;;;;5072097;28;20033;-69
2024/04/05 10:41:28;;;;;;;1.35;0.60;;;16.90;84.20;;;;;;5074215;28;20379;-69
2024/04/05 10:44:04;;;;;;;2.45;0.70;;;16.90;84.20;;;;;;5070545;28;20032;-69
2024/04/05 10:46:31;;;;;;;2.65;1.13;;;16.90;84.40;;;;;;5070532;28;20031;-63
2024/04/05 10:48:58;;;;;;;1.80;0.95;;;16.90;84.40;;;;;;5079345;28;20020;-64
2024/04/05 10:51:23;;;;;;;1.77;0.47;;;16.90;84.40;;;;;;5071834;28;20082;-63
2024/04/05 10:53:49;;;;;;;1.00;0.50;;;17.10;84.20;;;;;;5071521;28;20032;-63
2024/04/05 10:56:15;;;;;;;1.40;0.70;;;17.20;83.90;;;;;;5068856;28;20052;-63
2024/04/05 10:58:41;;;;;;;0.93;0.52;;;17.20;83.80;;;;;;5072656;28;20410;-63
2024/04/05 11:01:07;;;;;;;1.30;0.70;;;17.40;83.60;;;;;;5070302;28;20031;-63
2024/04/05 11:03:33;;;;;;;0.90;0.65;;;17.40;83.30;;;;;;5065450;28;20028;-63
2024/04/05 11:06:05;;;;;;;1.05;0.50;;;17.50;83.20;;;;;;5072410;28;20119;-62
2024/04/05 11:08:32;;;;;;;1.25;1.13;;;17.50;83.10;;;;;;5070933;28;20036;-63
2024/04/05 11:10:58;;;;;;;1.40;1.15;;;17.50;82.90;;;;;;5069006;28;20068;-63
2024/04/05 11:13:26;;;;;;;2.08;0.70;;;17.40;82.90;;;;;;5069286;28;20489;-63
2024/04/05 11:16:04;;;;;;;1.15;0.70;;;17.40;83.10;;;;;;5058612;28;20372;-63
2024/04/05 11:18:37;;;;;;;3.10;1.27;;;17.40;83.20;;;;;;5060248;28;20505;-69
2024/04/05 11:21:04;;;;;;;2.10;0.60;;;17.40;83.10;;;;;;5064162;28;20082;-69
2024/04/05 11:23:29;;;;;;;2.45;0.93;;;17.30;83.10;;;;;;5074496;28;20460;-70
2024/04/05 11:25:56;;;;;;;0.90;0.60;;;17.30;83.00;;;;;;5065635;28;20063;-69
2024/04/05 11:28:23;;;;;;;3.60;0.60;;;17.40;82.90;;;;;;5069994;28;20025;-69
2024/04/05 11:30:50;;;;;;;2.75;0.70;;;17.40;82.60;;;;;;5061071;28;20490;-69
2024/04/05 11:33:16;;;;;;;1.70;0.82;;;17.50;82.50;;;;;;5074671;28;20379;-70
2024/04/05 11:35:43;;;;;;;1.45;0.82;;;17.50;82.40;;;;;;5065674;28;20035;-63
2024/04/05 11:38:09;;;;;;;0.75;0.70;;;17.50;82.30;;;;;;5067441;28;20016;-63
2024/04/05 11:40:34;;;;;;;2.15;1.00;;;17.50;82.30;;;;;;5069373;28;20036;-71
2024/04/05 11:43:01;;;;;;;1.67;0.77;;;17.50;82.30;;;;;;5063762;28;20098;-64
2024/04/05 11:45:26;;;;;;;0.65;0.45;;;17.60;82.30;;;;;;5076920;28;20033;-70
2024/04/05 11:47:53;;;;;;;3.00;0.88;;;17.60;82.10;;;;;;5075301;28;20040;-69
2024/04/05 11:50:19;;;;;;;3.03;1.02;;;17.60;81.90;;;;;;5070751;28;20032;-63
2024/04/05 11:52:45;;;;;;;0.82;0.77;;;17.60;81.40;;;;;;5081226;28;20078;-70
2024/04/05 11:55:10;;;;;;;1.00;0.60;;;17.50;81.40;;;;;;5070999;28;20661;-69
2024/04/05 11:57:36;;;;;;;4.18;0.90;;;17.50;81.40;;;;;;5067873;28;20526;-69
2024/04/05 12:00:10;;;;;;;1.30;0.88;;;17.50;81.60;;;;;;5067263;28;20035;-64
2024/04/05 12:02:37;;;;;;;2.00;1.05;;;17.50;81.70;;;;;;5068102;28;20016;-69
2024/04/05 12:05:03;;;;;;;1.67;0.47;;;17.50;81.90;;;;;;5068912;28;20078;-69
2024/04/05 12:07:28;;;;;;;1.08;1.02;;;17.50;81.90;;;;;;5067725;28;20028;-70
2024/04/05 12:09:54;;;;;;;0.77;0.50;;;17.40;81.90;;;;;;5069279;28;20043;-63
2024/04/05 12:12:20;;;;;;;0.93;0.50;;;17.40;82.00;;;;;;5064810;28;20398;-64
2024/04/05 12:14:46;;;;;;;1.38;0.65;;;17.40;82.10;;;;;;5071713;28;20112;-69
2024/04/05 12:17:11;;;;;;;2.38;0.90;;;17.30;82.10;;;;;;5072002;28;20364;-69
2024/04/05 12:19:39;;;;;;;1.65;0.88;;;17.20;81.40;;;;;;5071285;28;20081;-69
2024/04/05 12:22:05;;;;;;;2.55;0.88;;;17.20;81.50;;;;;;5069135;28;20035;-72
2024/04/05 12:24:31;;;;;;;0.70;0.60;;;17.20;81.50;;;;;;5067489;28;20040;-69
2024/04/05 12:26:57;;;;;;;1.17;0.75;;;17.20;81.50;;;;;;5062810;28;20036;-69
2024/04/05 12:29:22;;;;;;;0.98;0.80;;;17.20;81.40;;;;;;5059713;28;20468;-69
2024/04/05 12:31:52;;;;;;;0.90;0.38;;;17.20;81.20;;;;;;5053483;28;20041;-64
2024/04/05 12:34:17;;;;;;;2.33;0.65;;;17.30;81.00;;;;;;5069549;28;20536;-63
2024/04/05 12:36:43;;;;;;;1.35;0.60;;;17.30;80.80;;;;;;5063145;28;20067;-64
2024/04/05 12:39:24;;;;;;;0.45;0.45;;;17.30;80.90;;;;;;5065112;28;20115;-64
2024/04/05 12:41:51;;;;;;;0.63;0.63;;;17.30;80.70;;;;;;5065387;28;20584;-68
2024/04/05 12:44:18;;;;;;;0.63;0.57;;;17.30;80.80;;;;;;5070140;28;20036;-69
2024/04/05 12:46:47;;;;;;;1.00;1.00;;;17.30;80.60;;;;;;5068876;28;20125;-69